Terminal Aerodrome Forecast
Issued by NWS

Home | Current Version | Previous Version | Text Only | Print | Product List | Glossary Off
Versions: 1 2 3 4 5 6 7 8 9 10 11 12 13 14 15 16 17 18 19 20 21

000
FTUS43 KOAX 280553 CCA
TAFCDR
TAF COR
KCDR 280553Z 2806/2906 17010KT P6SM VCSH BKN120
     FM280800 VRB05KT P6SM SCT120
     FM281600 09008KT P6SM BKN100
     FM282100 08008KT P6SM VCTS BKN050CB BKN100=

USA.gov is the U.S. government's official web portal to all federal, state and local government web resources and services.